createdAt,value
2022-12-17T00:01:48.932Z,458.22
2022-12-17T00:07:20.665Z,457.87
2022-12-17T00:12:52.123Z,457.87
2022-12-17T00:18:24.238Z,457.35
2022-12-17T00:23:57.165Z,457.00
2022-12-17T00:29:29.033Z,456.30
2022-12-17T00:35:00.966Z,455.52
2022-12-17T00:40:32.830Z,454.83
2022-12-17T00:46:04.575Z,454.48
2022-12-17T00:51:36.256Z,454.13
2022-12-17T00:57:08.167Z,453.61
2022-12-17T01:02:40.029Z,452.91
2022-12-17T01:08:11.999Z,452.04
2022-12-17T01:13:43.541Z,451.35
2022-12-17T01:19:15.349Z,450.56
2022-12-17T01:24:47.249Z,450.04
2022-12-17T01:35:48.697Z,448.83
2022-12-17T01:41:20.521Z,448.30
2022-12-17T01:46:52.476Z,447.78
2022-12-17T01:52:24.390Z,447.43
2022-12-17T01:57:56.118Z,447.00
2022-12-17T02:03:27.666Z,446.30
2022-12-17T02:08:59.185Z,446.13
2022-12-17T02:14:31.371Z,445.78
2022-12-17T02:20:03.079Z,445.09
2022-12-17T02:25:34.979Z,444.91
2022-12-17T02:31:06.789Z,444.74
2022-12-17T02:36:38.434Z,444.39
2022-12-17T02:42:09.923Z,444.22
2022-12-17T02:47:41.497Z,443.87
2022-12-17T02:53:13.527Z,444.04
2022-12-17T02:58:45.126Z,443.70
2022-12-17T03:04:16.726Z,443.18
2022-12-17T03:09:48.611Z,442.22
2022-12-17T03:15:20.778Z,441.52
2022-12-17T03:20:52.897Z,440.83
2022-12-17T03:26:24.499Z,440.31
2022-12-17T03:31:56.411Z,439.79
2022-12-17T03:37:28.188Z,439.27
2022-12-17T03:42:59.888Z,438.22
2022-12-17T03:48:31.902Z,438.22
2022-12-17T03:54:03.781Z,438.05
2022-12-17T03:59:35.571Z,437.79
2022-12-17T04:05:07.245Z,437.62
2022-12-17T04:10:38.918Z,437.44
2022-12-17T04:16:10.810Z,437.09
2022-12-17T04:21:42.789Z,436.57
2022-12-17T04:27:14.499Z,435.71
2022-12-17T04:32:46.412Z,435.36
2022-12-17T04:38:20.046Z,434.49
2022-12-17T04:43:51.776Z,433.97
2022-12-17T04:49:23.588Z,433.53
2022-12-17T04:54:55.187Z,432.84
2022-12-17T05:00:27.037Z,432.49
2022-12-17T05:05:58.619Z,432.32
2022-12-17T05:11:30.500Z,431.45
2022-12-17T05:17:02.634Z,430.93
2022-12-17T05:22:34.535Z,430.24
2022-12-17T05:28:06.200Z,429.54
2022-12-17T05:33:38.486Z,428.59
2022-12-17T05:39:09.771Z,427.55
2022-12-17T05:44:41.705Z,427.20
2022-12-17T05:50:13.340Z,426.16
2022-12-17T05:55:45.162Z,425.81
2022-12-17T06:01:16.969Z,424.94
2022-12-17T06:06:48.850Z,423.99
2022-12-17T06:12:20.665Z,423.64
2022-12-17T06:17:52.527Z,423.30
2022-12-17T06:23:24.584Z,422.60
2022-12-17T06:28:56.372Z,422.26
2022-12-17T06:34:28.351Z,421.74
2022-12-17T06:39:59.843Z,421.39
2022-12-17T06:45:31.916Z,420.78
2022-12-17T06:51:03.679Z,419.91
2022-12-17T06:56:35.657Z,419.05
2022-12-17T07:02:07.969Z,418.53
2022-12-17T07:07:39.521Z,417.49
2022-12-17T07:13:11.311Z,416.97
2022-12-17T07:18:43.110Z,416.10
2022-12-17T07:24:14.896Z,415.58
2022-12-17T07:29:46.621Z,415.15
2022-12-17T07:35:18.265Z,414.45
2022-12-17T07:40:50.336Z,414.11
2022-12-17T07:46:22.162Z,413.41
2022-12-17T07:51:53.946Z,412.89
2022-12-17T07:57:25.691Z,412.55
2022-12-17T08:02:57.808Z,412.20
2022-12-17T08:13:59.159Z,411.16
2022-12-17T08:19:31.426Z,410.82
2022-12-17T08:25:03.274Z,410.38
2022-12-17T08:30:35.156Z,409.86
2022-12-17T08:36:07.024Z,409.17
2022-12-17T08:41:38.599Z,408.65
2022-12-17T08:47:10.650Z,408.48
2022-12-17T08:52:42.241Z,408.30
2022-12-17T08:58:18.086Z,408.13
2022-12-17T09:00:51.407Z,407.96
2022-12-17T09:06:27.644Z,407.78
2022-12-17T09:12:04.446Z,407.26
2022-12-17T09:17:36.297Z,406.74
2022-12-17T09:23:08.064Z,406.31
2022-12-17T09:28:42.298Z,405.97
